sensor_id;sensor_type;location;lat;lon;timestamp;P1;durP1;ratioP1;P2;durP2;ratioP2
2972;SDS011;1496;51.404;7.232;2023-03-02T00:04:21;12.60;;;6.57;;
2972;SDS011;1496;51.404;7.232;2023-03-02T00:06:51;11.33;;;6.63;;
2972;SDS011;1496;51.404;7.232;2023-03-02T00:09:20;9.67;;;6.20;;
2972;SDS011;1496;51.404;7.232;2023-03-02T00:11:45;10.43;;;6.77;;
2972;SDS011;1496;51.404;7.232;2023-03-02T00:14:11;15.90;;;6.10;;
2972;SDS011;1496;51.404;7.232;2023-03-02T00:16:37;10.40;;;7.17;;
2972;SDS011;1496;51.404;7.232;2023-03-02T00:19:04;12.27;;;7.60;;
2972;SDS011;1496;51.404;7.232;2023-03-02T00:21:30;11.10;;;6.60;;
2972;SDS011;1496;51.404;7.232;2023-03-02T00:23:56;9.70;;;7.70;;
2972;SDS011;1496;51.404;7.232;2023-03-02T00:26:21;17.90;;;8.03;;
2972;SDS011;1496;51.404;7.232;2023-03-02T00:28:47;11.20;;;6.90;;
2972;SDS011;1496;51.404;7.232;2023-03-02T00:31:13;9.90;;;6.57;;
2972;SDS011;1496;51.404;7.232;2023-03-02T00:33:39;19.60;;;7.47;;
2972;SDS011;1496;51.404;7.232;2023-03-02T00:36:04;10.37;;;6.80;;
2972;SDS011;1496;51.404;7.232;2023-03-02T00:38:30;15.03;;;7.03;;
2972;SDS011;1496;51.404;7.232;2023-03-02T00:40:56;14.27;;;7.77;;
2972;SDS011;1496;51.404;7.232;2023-03-02T00:43:23;12.07;;;7.47;;
2972;SDS011;1496;51.404;7.232;2023-03-02T00:45:55;13.00;;;8.67;;
2972;SDS011;1496;51.404;7.232;2023-03-02T00:48:21;11.33;;;7.80;;
2972;SDS011;1496;51.404;7.232;2023-03-02T00:50:46;16.10;;;8.47;;
2972;SDS011;1496;51.404;7.232;2023-03-02T00:53:12;11.40;;;6.30;;
2972;SDS011;1496;51.404;7.232;2023-03-02T00:55:38;17.80;;;8.60;;
2972;SDS011;1496;51.404;7.232;2023-03-02T00:58:04;13.60;;;7.70;;
2972;SDS011;1496;51.404;7.232;2023-03-02T01:00:30;14.83;;;8.00;;
2972;SDS011;1496;51.404;7.232;2023-03-02T01:03:01;15.47;;;8.23;;
2972;SDS011;1496;51.404;7.232;2023-03-02T01:05:27;17.23;;;7.70;;
2972;SDS011;1496;51.404;7.232;2023-03-02T01:07:52;13.50;;;7.57;;
2972;SDS011;1496;51.404;7.232;2023-03-02T01:10:18;17.40;;;7.93;;
2972;SDS011;1496;51.404;7.232;2023-03-02T01:12:44;13.80;;;8.27;;
2972;SDS011;1496;51.404;7.232;2023-03-02T01:15:10;12.80;;;7.50;;
2972;SDS011;1496;51.404;7.232;2023-03-02T01:17:36;12.90;;;6.77;;
2972;SDS011;1496;51.404;7.232;2023-03-02T01:20:04;13.20;;;7.27;;
2972;SDS011;1496;51.404;7.232;2023-03-02T01:22:32;14.20;;;7.80;;
2972;SDS011;1496;51.404;7.232;2023-03-02T01:24:58;9.90;;;6.70;;
2972;SDS011;1496;51.404;7.232;2023-03-02T01:27:23;9.70;;;6.70;;
2972;SDS011;1496;51.404;7.232;2023-03-02T01:29:49;13.23;;;7.50;;
2972;SDS011;1496;51.404;7.232;2023-03-02T01:32:15;10.23;;;7.13;;
2972;SDS011;1496;51.404;7.232;2023-03-02T01:34:41;13.00;;;7.20;;
2972;SDS011;1496;51.404;7.232;2023-03-02T01:37:07;12.33;;;6.53;;
2972;SDS011;1496;51.404;7.232;2023-03-02T01:39:32;8.20;;;5.97;;
2972;SDS011;1496;51.404;7.232;2023-03-02T01:41:58;10.17;;;6.83;;
2972;SDS011;1496;51.404;7.232;2023-03-02T01:44:34;13.43;;;6.70;;
2972;SDS011;1496;51.404;7.232;2023-03-02T01:52:32;14.67;;;7.60;;
2972;SDS011;1496;51.404;7.232;2023-03-02T01:55:03;12.63;;;7.47;;
2972;SDS011;1496;51.404;7.232;2023-03-02T01:57:32;10.97;;;7.87;;
2972;SDS011;1496;51.404;7.232;2023-03-02T02:00:08;13.00;;;7.80;;
2972;SDS011;1496;51.404;7.232;2023-03-02T02:02:38;9.60;;;7.13;;
2972;SDS011;1496;51.404;7.232;2023-03-02T02:05:07;15.90;;;8.70;;
2972;SDS011;1496;51.404;7.232;2023-03-02T02:07:38;11.70;;;7.07;;
2972;SDS011;1496;51.404;7.232;2023-03-02T02:10:05;9.73;;;6.50;;
2972;SDS011;1496;51.404;7.232;2023-03-02T02:12:31;15.57;;;8.10;;
2972;SDS011;1496;51.404;7.232;2023-03-02T02:14:58;20.13;;;7.33;;
2972;SDS011;1496;51.404;7.232;2023-03-02T02:17:25;16.93;;;8.53;;
2972;SDS011;1496;51.404;7.232;2023-03-02T02:19:55;14.20;;;7.00;;
2972;SDS011;1496;51.404;7.232;2023-03-02T02:25:51;13.27;;;7.50;;
2972;SDS011;1496;51.404;7.232;2023-03-02T02:28:19;11.70;;;7.13;;
2972;SDS011;1496;51.404;7.232;2023-03-02T02:31:02;14.03;;;7.43;;
2972;SDS011;1496;51.404;7.232;2023-03-02T02:33:33;14.53;;;7.10;;
2972;SDS011;1496;51.404;7.232;2023-03-02T02:36:12;12.83;;;7.30;;
2972;SDS011;1496;51.404;7.232;2023-03-02T02:38:43;14.70;;;7.20;;
2972;SDS011;1496;51.404;7.232;2023-03-02T02:41:21;11.20;;;7.30;;
2972;SDS011;1496;51.404;7.232;2023-03-02T02:43:52;13.60;;;7.53;;
2972;SDS011;1496;51.404;7.232;2023-03-02T02:46:19;10.57;;;6.60;;
2972;SDS011;1496;51.404;7.232;2023-03-02T02:48:54;10.27;;;6.50;;
2972;SDS011;1496;51.404;7.232;2023-03-02T02:51:33;16.30;;;7.87;;
2972;SDS011;1496;51.404;7.232;2023-03-02T02:54:00;15.60;;;8.23;;
2972;SDS011;1496;51.404;7.232;2023-03-02T02:56:33;11.60;;;6.40;;
2972;SDS011;1496;51.404;7.232;2023-03-02T02:59:05;10.53;;;6.93;;
2972;SDS011;1496;51.404;7.232;2023-03-02T03:01:37;10.27;;;6.80;;
2972;SDS011;1496;51.404;7.232;2023-03-02T03:04:04;18.10;;;8.23;;
2972;SDS011;1496;51.404;7.232;2023-03-02T03:06:32;11.17;;;6.20;;
2972;SDS011;1496;51.404;7.232;2023-03-02T03:09:04;11.70;;;6.10;;
2972;SDS011;1496;51.404;7.232;2023-03-02T03:11:37;17.13;;;6.67;;
2972;SDS011;1496;51.404;7.232;2023-03-02T03:14:10;12.57;;;6.50;;
2972;SDS011;1496;51.404;7.232;2023-03-02T03:16:44;10.57;;;6.60;;
2972;SDS011;1496;51.404;7.232;2023-03-02T03:21:36;11.73;;;6.70;;
2972;SDS011;1496;51.404;7.232;2023-03-02T03:24:02;16.27;;;7.30;;
2972;SDS011;1496;51.404;7.232;2023-03-02T03:26:29;14.10;;;7.60;;
2972;SDS011;1496;51.404;7.232;2023-03-02T03:28:54;14.40;;;8.00;;
2972;SDS011;1496;51.404;7.232;2023-03-02T03:31:22;8.90;;;6.47;;
2972;SDS011;1496;51.404;7.232;2023-03-02T03:33:49;10.10;;;5.70;;
2972;SDS011;1496;51.404;7.232;2023-03-02T03:36:16;15.40;;;8.50;;
2972;SDS011;1496;51.404;7.232;2023-03-02T03:38:43;10.77;;;6.97;;
2972;SDS011;1496;51.404;7.232;2023-03-02T03:41:09;17.60;;;6.33;;
2972;SDS011;1496;51.404;7.232;2023-03-02T03:43:34;11.40;;;6.67;;
2972;SDS011;1496;51.404;7.232;2023-03-02T03:46:01;14.83;;;7.30;;
2972;SDS011;1496;51.404;7.232;2023-03-02T03:48:26;10.73;;;6.73;;
2972;SDS011;1496;51.404;7.232;2023-03-02T03:50:52;11.17;;;7.73;;
2972;SDS011;1496;51.404;7.232;2023-03-02T03:53:18;10.17;;;6.57;;
2972;SDS011;1496;51.404;7.232;2023-03-02T03:55:43;10.10;;;6.10;;
2972;SDS011;1496;51.404;7.232;2023-03-02T03:58:09;10.67;;;6.30;;
2972;SDS011;1496;51.404;7.232;2023-03-02T04:00:35;12.73;;;7.23;;
2972;SDS011;1496;51.404;7.232;2023-03-02T04:03:06;12.60;;;7.50;;
2972;SDS011;1496;51.404;7.232;2023-03-02T04:05:31;9.97;;;7.10;;
2972;SDS011;1496;51.404;7.232;2023-03-02T04:08:00;12.63;;;6.83;;
2972;SDS011;1496;51.404;7.232;2023-03-02T04:10:27;9.90;;;6.00;;
2972;SDS011;1496;51.404;7.232;2023-03-02T04:12:53;11.07;;;6.03;;
2972;SDS011;1496;51.404;7.232;2023-03-02T04:15:20;10.80;;;6.83;;
2972;SDS011;1496;51.404;7.232;2023-03-02T04:17:48;11.50;;;7.10;;
2972;SDS011;1496;51.404;7.232;2023-03-02T04:20:17;9.90;;;6.37;;
2972;SDS011;1496;51.404;7.232;2023-03-02T04:22:47;8.40;;;6.30;;
2972;SDS011;1496;51.404;7.232;2023-03-02T04:25:17;10.40;;;6.00;;
2972;SDS011;1496;51.404;7.232;2023-03-02T04:27:47;17.17;;;7.10;;
2972;SDS011;1496;51.404;7.232;2023-03-02T04:30:14;10.13;;;5.80;;
2972;SDS011;1496;51.404;7.232;2023-03-02T04:32:43;10.07;;;6.23;;
2972;SDS011;1496;51.404;7.232;2023-03-02T04:35:10;11.93;;;6.90;;
2972;SDS011;1496;51.404;7.232;2023-03-02T04:37:36;15.10;;;6.33;;
2972;SDS011;1496;51.404;7.232;2023-03-02T04:40:02;24.23;;;6.30;;
2972;SDS011;1496;51.404;7.232;2023-03-02T04:42:28;10.90;;;6.10;;
2972;SDS011;1496;51.404;7.232;2023-03-02T04:44:54;8.60;;;5.63;;
2972;SDS011;1496;51.404;7.232;2023-03-02T04:47:20;12.70;;;6.70;;
2972;SDS011;1496;51.404;7.232;2023-03-02T04:49:46;18.67;;;11.00;;
2972;SDS011;1496;51.404;7.232;2023-03-02T04:52:14;16.60;;;8.80;;
2972;SDS011;1496;51.404;7.232;2023-03-02T04:54:40;17.00;;;9.30;;
2972;SDS011;1496;51.404;7.232;2023-03-02T04:57:05;11.00;;;7.30;;
2972;SDS011;1496;51.404;7.232;2023-03-02T04:59:32;17.10;;;8.60;;
2972;SDS011;1496;51.404;7.232;2023-03-02T05:01:59;10.03;;;7.03;;
2972;SDS011;1496;51.404;7.232;2023-03-02T05:04:25;12.90;;;7.10;;
2972;SDS011;1496;51.404;7.232;2023-03-02T05:06:51;15.03;;;7.77;;
2972;SDS011;1496;51.404;7.232;2023-03-02T05:09:17;12.10;;;6.87;;
2972;SDS011;1496;51.404;7.232;2023-03-02T05:11:44;11.60;;;6.70;;
2972;SDS011;1496;51.404;7.232;2023-03-02T05:14:10;10.03;;;7.07;;
2972;SDS011;1496;51.404;7.232;2023-03-02T05:16:37;16.27;;;9.07;;
2972;SDS011;1496;51.404;7.232;2023-03-02T05:19:06;12.10;;;7.17;;
2972;SDS011;1496;51.404;7.232;2023-03-02T05:21:33;12.73;;;6.77;;
2972;SDS011;1496;51.404;7.232;2023-03-02T05:23:59;18.20;;;8.83;;
2972;SDS011;1496;51.404;7.232;2023-03-02T05:26:25;12.97;;;7.00;;
2972;SDS011;1496;51.404;7.232;2023-03-02T05:28:50;14.63;;;8.10;;
2972;SDS011;1496;51.404;7.232;2023-03-02T05:31:20;16.57;;;7.70;;
2972;SDS011;1496;51.404;7.232;2023-03-02T05:33:50;16.63;;;7.90;;
2972;SDS011;1496;51.404;7.232;2023-03-02T05:36:16;12.87;;;7.33;;
2972;SDS011;1496;51.404;7.232;2023-03-02T05:38:42;14.07;;;8.07;;
2972;SDS011;1496;51.404;7.232;2023-03-02T05:41:08;12.70;;;7.23;;
2972;SDS011;1496;51.404;7.232;2023-03-02T05:43:33;11.50;;;8.27;;
2972;SDS011;1496;51.404;7.232;2023-03-02T05:46:00;10.60;;;6.70;;
2972;SDS011;1496;51.404;7.232;2023-03-02T05:48:26;17.40;;;6.70;;
2972;SDS011;1496;51.404;7.232;2023-03-02T05:50:53;10.07;;;6.17;;
2972;SDS011;1496;51.404;7.232;2023-03-02T05:53:19;11.70;;;7.20;;
2972;SDS011;1496;51.404;7.232;2023-03-02T05:55:44;14.30;;;7.20;;
2972;SDS011;1496;51.404;7.232;2023-03-02T05:58:14;11.13;;;6.67;;
2972;SDS011;1496;51.404;7.232;2023-03-02T06:00:41;10.97;;;6.07;;
2972;SDS011;1496;51.404;7.232;2023-03-02T06:03:07;12.50;;;7.83;;
2972;SDS011;1496;51.404;7.232;2023-03-02T06:05:33;11.17;;;6.40;;
2972;SDS011;1496;51.404;7.232;2023-03-02T06:07:59;12.20;;;6.70;;
2972;SDS011;1496;51.404;7.232;2023-03-02T06:10:25;14.73;;;6.30;;
2972;SDS011;1496;51.404;7.232;2023-03-02T06:12:51;11.90;;;6.80;;
2972;SDS011;1496;51.404;7.232;2023-03-02T06:15:17;12.83;;;7.03;;
2972;SDS011;1496;51.404;7.232;2023-03-02T06:17:43;17.13;;;7.70;;
2972;SDS011;1496;51.404;7.232;2023-03-02T06:20:09;10.77;;;6.73;;
2972;SDS011;1496;51.404;7.232;2023-03-02T06:22:39;13.83;;;7.30;;
2972;SDS011;1496;51.404;7.232;2023-03-02T06:25:07;12.10;;;6.77;;
2972;SDS011;1496;51.404;7.232;2023-03-02T06:27:35;11.90;;;6.57;;
2972;SDS011;1496;51.404;7.232;2023-03-02T06:30:02;17.20;;;7.20;;
2972;SDS011;1496;51.404;7.232;2023-03-02T06:32:28;12.23;;;5.87;;
2972;SDS011;1496;51.404;7.232;2023-03-02T06:34:58;14.03;;;6.67;;
2972;SDS011;1496;51.404;7.232;2023-03-02T06:37:25;14.17;;;6.80;;
2972;SDS011;1496;51.404;7.232;2023-03-02T06:39:53;15.93;;;6.30;;
2972;SDS011;1496;51.404;7.232;2023-03-02T06:42:19;14.13;;;8.30;;
2972;SDS011;1496;51.404;7.232;2023-03-02T06:44:45;14.37;;;7.40;;
2972;SDS011;1496;51.404;7.232;2023-03-02T06:47:10;13.27;;;6.83;;
2972;SDS011;1496;51.404;7.232;2023-03-02T06:49:36;11.63;;;6.93;;
2972;SDS011;1496;51.404;7.232;2023-03-02T06:52:01;12.87;;;7.03;;
2972;SDS011;1496;51.404;7.232;2023-03-02T06:54:27;11.20;;;6.43;;
2972;SDS011;1496;51.404;7.232;2023-03-02T06:56:53;11.17;;;6.27;;
2972;SDS011;1496;51.404;7.232;2023-03-02T06:59:21;13.00;;;6.73;;
2972;SDS011;1496;51.404;7.232;2023-03-02T07:01:47;11.73;;;6.83;;
2972;SDS011;1496;51.404;7.232;2023-03-02T07:04:14;13.73;;;6.80;;
2972;SDS011;1496;51.404;7.232;2023-03-02T07:06:40;10.03;;;6.83;;
2972;SDS011;1496;51.404;7.232;2023-03-02T07:09:06;13.70;;;7.43;;
2972;SDS011;1496;51.404;7.232;2023-03-02T07:11:31;11.67;;;6.47;;
2972;SDS011;1496;51.404;7.232;2023-03-02T07:13:58;11.03;;;6.20;;
2972;SDS011;1496;51.404;7.232;2023-03-02T07:16:24;8.77;;;6.20;;
2972;SDS011;1496;51.404;7.232;2023-03-02T07:18:50;11.60;;;6.37;;
2972;SDS011;1496;51.404;7.232;2023-03-02T07:21:16;10.87;;;7.00;;
2972;SDS011;1496;51.404;7.232;2023-03-02T07:23:41;9.13;;;5.50;;
2972;SDS011;1496;51.404;7.232;2023-03-02T07:26:07;9.60;;;6.47;;
2972;SDS011;1496;51.404;7.232;2023-03-02T07:28:36;8.60;;;6.13;;
2972;SDS011;1496;51.404;7.232;2023-03-02T07:31:07;13.33;;;7.43;;
2972;SDS011;1496;51.404;7.232;2023-03-02T07:33:34;10.10;;;5.47;;
2972;SDS011;1496;51.404;7.232;2023-03-02T07:36:00;12.30;;;6.10;;
2972;SDS011;1496;51.404;7.232;2023-03-02T07:38:26;9.57;;;6.13;;
2972;SDS011;1496;51.404;7.232;2023-03-02T07:40:52;12.33;;;6.97;;
2972;SDS011;1496;51.404;7.232;2023-03-02T07:43:18;9.17;;;6.20;;
2972;SDS011;1496;51.404;7.232;2023-03-02T07:45:44;9.77;;;6.47;;
2972;SDS011;1496;51.404;7.232;2023-03-02T07:48:10;12.50;;;6.10;;
2972;SDS011;1496;51.404;7.232;2023-03-02T07:50:36;9.47;;;5.77;;
2972;SDS011;1496;51.404;7.232;2023-03-02T07:53:02;9.63;;;6.00;;
2972;SDS011;1496;51.404;7.232;2023-03-02T07:55:28;14.03;;;6.60;;
2972;SDS011;1496;51.404;7.232;2023-03-02T07:57:53;9.70;;;6.87;;
2972;SDS011;1496;51.404;7.232;2023-03-02T08:00:19;9.97;;;6.10;;
2972;SDS011;1496;51.404;7.232;2023-03-02T08:02:45;9.00;;;5.97;;
2972;SDS011;1496;51.404;7.232;2023-03-02T08:05:11;13.00;;;6.73;;
2972;SDS011;1496;51.404;7.232;2023-03-02T08:07:38;10.33;;;6.43;;
2972;SDS011;1496;51.404;7.232;2023-03-02T08:10:05;12.37;;;7.40;;
2972;SDS011;1496;51.404;7.232;2023-03-02T08:12:31;8.50;;;6.40;;
2972;SDS011;1496;51.404;7.232;2023-03-02T08:14:56;12.00;;;6.30;;
2972;SDS011;1496;51.404;7.232;2023-03-02T08:17:22;12.10;;;6.40;;
2972;SDS011;1496;51.404;7.232;2023-03-02T08:19:47;12.00;;;6.57;;
2972;SDS011;1496;51.404;7.232;2023-03-02T08:22:13;13.60;;;7.83;;
2972;SDS011;1496;51.404;7.232;2023-03-02T08:24:39;11.10;;;6.80;;
2972;SDS011;1496;51.404;7.232;2023-03-02T08:27:06;9.70;;;6.10;;
2972;SDS011;1496;51.404;7.232;2023-03-02T08:29:33;12.53;;;6.97;;
2972;SDS011;1496;51.404;7.232;2023-03-02T08:31:58;13.40;;;6.83;;
2972;SDS011;1496;51.404;7.232;2023-03-02T08:34:24;11.50;;;5.50;;
2972;SDS011;1496;51.404;7.232;2023-03-02T08:36:51;8.80;;;6.00;;
2972;SDS011;1496;51.404;7.232;2023-03-02T08:39:17;12.20;;;7.40;;
2972;SDS011;1496;51.404;7.232;2023-03-02T08:41:43;10.97;;;6.23;;
2972;SDS011;1496;51.404;7.232;2023-03-02T08:44:08;10.97;;;6.63;;
2972;SDS011;1496;51.404;7.232;2023-03-02T08:46:35;11.07;;;5.70;;
2972;SDS011;1496;51.404;7.232;2023-03-02T08:49:00;11.50;;;7.03;;
2972;SDS011;1496;51.404;7.232;2023-03-02T08:51:26;16.53;;;7.13;;
2972;SDS011;1496;51.404;7.232;2023-03-02T08:53:52;15.30;;;7.77;;
2972;SDS011;1496;51.404;7.232;2023-03-02T08:58:57;12.97;;;7.00;;
2972;SDS011;1496;51.404;7.232;2023-03-02T09:01:28;14.70;;;6.53;;
2972;SDS011;1496;51.404;7.232;2023-03-02T09:03:55;14.37;;;6.90;;
2972;SDS011;1496;51.404;7.232;2023-03-02T09:06:23;11.30;;;6.90;;
2972;SDS011;1496;51.404;7.232;2023-03-02T09:08:49;9.93;;;6.93;;
2972;SDS011;1496;51.404;7.232;2023-03-02T09:11:15;13.27;;;7.00;;
2972;SDS011;1496;51.404;7.232;2023-03-02T09:13:41;9.30;;;6.37;;
2972;SDS011;1496;51.404;7.232;2023-03-02T09:16:07;9.30;;;6.30;;
2972;SDS011;1496;51.404;7.232;2023-03-02T09:18:34;10.40;;;5.50;;
2972;SDS011;1496;51.404;7.232;2023-03-02T09:20:59;12.70;;;6.67;;
2972;SDS011;1496;51.404;7.232;2023-03-02T09:23:25;12.83;;;6.10;;
2972;SDS011;1496;51.404;7.232;2023-03-02T09:25:52;10.10;;;6.10;;
2972;SDS011;1496;51.404;7.232;2023-03-02T09:28:18;9.93;;;6.00;;
2972;SDS011;1496;51.404;7.232;2023-03-02T09:30:49;7.80;;;5.97;;
2972;SDS011;1496;51.404;7.232;2023-03-02T09:33:19;10.80;;;6.73;;
2972;SDS011;1496;51.404;7.232;2023-03-02T09:35:45;9.50;;;6.10;;
2972;SDS011;1496;51.404;7.232;2023-03-02T09:38:12;10.20;;;7.00;;
2972;SDS011;1496;51.404;7.232;2023-03-02T09:46:02;10.97;;;6.60;;
2972;SDS011;1496;51.404;7.232;2023-03-02T09:48:50;9.30;;;5.70;;
2972;SDS011;1496;51.404;7.232;2023-03-02T09:51:27;16.80;;;6.50;;
2972;SDS011;1496;51.404;7.232;2023-03-02T09:54:14;9.90;;;6.20;;
2972;SDS011;1496;51.404;7.232;2023-03-02T09:56:43;9.10;;;5.70;;
2972;SDS011;1496;51.404;7.232;2023-03-02T09:59:31;8.67;;;5.53;;
2972;SDS011;1496;51.404;7.232;2023-03-02T10:04:58;10.37;;;6.33;;
2972;SDS011;1496;51.404;7.232;2023-03-02T10:07:29;10.67;;;6.27;;
2972;SDS011;1496;51.404;7.232;2023-03-02T10:10:42;10.40;;;6.13;;
2972;SDS011;1496;51.404;7.232;2023-03-02T10:15:35;6.93;;;4.80;;
2972;SDS011;1496;51.404;7.232;2023-03-02T10:18:29;7.30;;;4.70;;
2972;SDS011;1496;51.404;7.232;2023-03-02T10:21:15;10.27;;;6.10;;
2972;SDS011;1496;51.404;7.232;2023-03-02T10:23:55;9.50;;;5.80;;
2972;SDS011;1496;51.404;7.232;2023-03-02T10:26:24;8.50;;;5.20;;
2972;SDS011;1496;51.404;7.232;2023-03-02T10:31:30;9.83;;;5.60;;
2972;SDS011;1496;51.404;7.232;2023-03-02T10:33:57;7.60;;;5.43;;
2972;SDS011;1496;51.404;7.232;2023-03-02T10:36:29;13.27;;;6.53;;
2972;SDS011;1496;51.404;7.232;2023-03-02T10:38:59;8.90;;;5.30;;
2972;SDS011;1496;51.404;7.232;2023-03-02T10:41:26;11.57;;;5.70;;
2972;SDS011;1496;51.404;7.232;2023-03-02T10:44:00;8.13;;;5.73;;
2972;SDS011;1496;51.404;7.232;2023-03-02T10:46:42;9.77;;;5.53;;
2972;SDS011;1496;51.404;7.232;2023-03-02T10:49:21;10.67;;;6.10;;
2972;SDS011;1496;51.404;7.232;2023-03-02T10:51:53;11.30;;;6.90;;
2972;SDS011;1496;51.404;7.232;2023-03-02T10:54:24;7.83;;;5.33;;
2972;SDS011;1496;51.404;7.232;2023-03-02T10:56:51;7.03;;;5.00;;
2972;SDS011;1496;51.404;7.232;2023-03-02T11:02:17;9.57;;;6.27;;
2972;SDS011;1496;51.404;7.232;2023-03-02T11:04:47;9.60;;;5.20;;
2972;SDS011;1496;51.404;7.232;2023-03-02T11:07:19;9.30;;;5.77;;
2972;SDS011;1496;51.404;7.232;2023-03-02T11:09:59;8.17;;;5.27;;
2972;SDS011;1496;51.404;7.232;2023-03-02T11:12:28;7.13;;;4.50;;
2972;SDS011;1496;51.404;7.232;2023-03-02T11:17:43;7.50;;;5.40;;
2972;SDS011;1496;51.404;7.232;2023-03-02T11:20:21;8.23;;;4.90;;
2972;SDS011;1496;51.404;7.232;2023-03-02T11:22:56;11.03;;;5.90;;
2972;SDS011;1496;51.404;7.232;2023-03-02T11:25:34;9.27;;;5.17;;
2972;SDS011;1496;51.404;7.232;2023-03-02T11:28:11;7.37;;;5.37;;
2972;SDS011;1496;51.404;7.232;2023-03-02T11:30:50;8.70;;;5.93;;
2972;SDS011;1496;51.404;7.232;2023-03-02T11:36:17;10.40;;;5.07;;
2972;SDS011;1496;51.404;7.232;2023-03-02T11:38:49;6.93;;;4.73;;
2972;SDS011;1496;51.404;7.232;2023-03-02T11:41:27;8.30;;;4.80;;
2972;SDS011;1496;51.404;7.232;2023-03-02T11:43:54;8.50;;;4.80;;
2972;SDS011;1496;51.404;7.232;2023-03-02T11:46:26;11.90;;;5.37;;
2972;SDS011;1496;51.404;7.232;2023-03-02T11:48:58;9.10;;;4.93;;
2972;SDS011;1496;51.404;7.232;2023-03-02T11:51:35;7.53;;;4.50;;
2972;SDS011;1496;51.404;7.232;2023-03-02T11:54:02;10.23;;;5.10;;
2972;SDS011;1496;51.404;7.232;2023-03-02T11:56:36;7.70;;;5.00;;
2972;SDS011;1496;51.404;7.232;2023-03-02T11:59:05;13.23;;;5.00;;
2972;SDS011;1496;51.404;7.232;2023-03-02T12:01:40;8.30;;;4.97;;
2972;SDS011;1496;51.404;7.232;2023-03-02T12:04:59;8.50;;;4.40;;
2972;SDS011;1496;51.404;7.232;2023-03-02T12:06:57;7.97;;;5.30;;
2972;SDS011;1496;51.404;7.232;2023-03-02T12:09:25;6.83;;;5.47;;
2972;SDS011;1496;51.404;7.232;2023-03-02T12:11:59;8.97;;;5.50;;
2972;SDS011;1496;51.404;7.232;2023-03-02T12:14:41;8.07;;;4.80;;
2972;SDS011;1496;51.404;7.232;2023-03-02T12:17:49;6.27;;;4.77;;
2972;SDS011;1496;51.404;7.232;2023-03-02T12:22:32;12.50;;;5.60;;
2972;SDS011;1496;51.404;7.232;2023-03-02T12:25:00;7.13;;;5.00;;
2972;SDS011;1496;51.404;7.232;2023-03-02T12:27:37;9.07;;;5.57;;
2972;SDS011;1496;51.404;7.232;2023-03-02T12:30:08;6.23;;;4.00;;
2972;SDS011;1496;51.404;7.232;2023-03-02T12:33:04;7.90;;;3.93;;
2972;SDS011;1496;51.404;7.232;2023-03-02T12:35:40;9.93;;;5.57;;
2972;SDS011;1496;51.404;7.232;2023-03-02T12:38:15;11.50;;;4.53;;
2972;SDS011;1496;51.404;7.232;2023-03-02T12:46:47;8.57;;;4.30;;
2972;SDS011;1496;51.404;7.232;2023-03-02T12:49:20;8.80;;;4.43;;
2972;SDS011;1496;51.404;7.232;2023-03-02T12:57:31;9.80;;;4.37;;
2972;SDS011;1496;51.404;7.232;2023-03-02T13:00:00;5.73;;;4.27;;
2972;SDS011;1496;51.404;7.232;2023-03-02T13:02:29;7.20;;;4.80;;
2972;SDS011;1496;51.404;7.232;2023-03-02T13:05:00;7.90;;;4.93;;
2972;SDS011;1496;51.404;7.232;2023-03-02T13:07:35;7.17;;;4.50;;
2972;SDS011;1496;51.404;7.232;2023-03-02T13:10:11;7.60;;;4.33;;
2972;SDS011;1496;51.404;7.232;2023-03-02T13:12:47;7.70;;;4.33;;
2972;SDS011;1496;51.404;7.232;2023-03-02T13:15:13;7.40;;;4.17;;
2972;SDS011;1496;51.404;7.232;2023-03-02T13:17:41;6.80;;;4.40;;
2972;SDS011;1496;51.404;7.232;2023-03-02T13:20:09;5.93;;;3.50;;
2972;SDS011;1496;51.404;7.232;2023-03-02T13:22:37;5.00;;;3.40;;
2972;SDS011;1496;51.404;7.232;2023-03-02T13:25:05;6.07;;;3.70;;
2972;SDS011;1496;51.404;7.232;2023-03-02T13:27:32;5.80;;;3.90;;
2972;SDS011;1496;51.404;7.232;2023-03-02T13:30:09;7.67;;;4.60;;
2972;SDS011;1496;51.404;7.232;2023-03-02T13:32:45;6.97;;;3.70;;
2972;SDS011;1496;51.404;7.232;2023-03-02T13:35:15;5.90;;;4.00;;
2972;SDS011;1496;51.404;7.232;2023-03-02T13:38:00;6.97;;;4.00;;
2972;SDS011;1496;51.404;7.232;2023-03-02T13:40:31;6.40;;;3.87;;
2972;SDS011;1496;51.404;7.232;2023-03-02T13:43:01;8.90;;;4.07;;
2972;SDS011;1496;51.404;7.232;2023-03-02T13:45:32;9.43;;;4.30;;
2972;SDS011;1496;51.404;7.232;2023-03-02T13:47:59;8.87;;;3.87;;
2972;SDS011;1496;51.404;7.232;2023-03-02T13:50:36;5.67;;;3.93;;
2972;SDS011;1496;51.404;7.232;2023-03-02T13:53:02;7.83;;;3.67;;
2972;SDS011;1496;51.404;7.232;2023-03-02T13:55:31;4.20;;;3.20;;
2972;SDS011;1496;51.404;7.232;2023-03-02T13:57:57;6.13;;;3.90;;
2972;SDS011;1496;51.404;7.232;2023-03-02T14:00:27;5.60;;;3.63;;
2972;SDS011;1496;51.404;7.232;2023-03-02T14:02:57;7.00;;;4.10;;
2972;SDS011;1496;51.404;7.232;2023-03-02T14:05:23;7.93;;;4.00;;
2972;SDS011;1496;51.404;7.232;2023-03-02T14:07:59;8.60;;;3.83;;
2972;SDS011;1496;51.404;7.232;2023-03-02T14:10:25;6.57;;;3.67;;
2972;SDS011;1496;51.404;7.232;2023-03-02T14:12:55;4.63;;;3.80;;
2972;SDS011;1496;51.404;7.232;2023-03-02T14:15:30;7.03;;;3.83;;
2972;SDS011;1496;51.404;7.232;2023-03-02T14:17:56;7.37;;;4.57;;
2972;SDS011;1496;51.404;7.232;2023-03-02T14:20:21;6.27;;;3.30;;
2972;SDS011;1496;51.404;7.232;2023-03-02T14:22:47;6.97;;;4.43;;
2972;SDS011;1496;51.404;7.232;2023-03-02T14:25:14;6.17;;;3.80;;
2972;SDS011;1496;51.404;7.232;2023-03-02T14:27:40;6.00;;;3.60;;
2972;SDS011;1496;51.404;7.232;2023-03-02T14:30:11;6.30;;;4.17;;
2972;SDS011;1496;51.404;7.232;2023-03-02T14:32:43;5.40;;;3.97;;
2972;SDS011;1496;51.404;7.232;2023-03-02T14:35:12;6.53;;;4.57;;
2972;SDS011;1496;51.404;7.232;2023-03-02T14:37:40;5.43;;;3.63;;
2972;SDS011;1496;51.404;7.232;2023-03-02T14:40:27;4.50;;;3.60;;
2972;SDS011;1496;51.404;7.232;2023-03-02T14:42:53;6.03;;;4.10;;
2972;SDS011;1496;51.404;7.232;2023-03-02T14:45:19;6.20;;;4.57;;
2972;SDS011;1496;51.404;7.232;2023-03-02T14:47:45;5.20;;;3.80;;
2972;SDS011;1496;51.404;7.232;2023-03-02T14:50:11;7.73;;;3.90;;
2972;SDS011;1496;51.404;7.232;2023-03-02T14:52:39;15.33;;;4.30;;
2972;SDS011;1496;51.404;7.232;2023-03-02T14:55:26;6.87;;;3.70;;
2972;SDS011;1496;51.404;7.232;2023-03-02T14:57:58;7.23;;;4.00;;
2972;SDS011;1496;51.404;7.232;2023-03-02T15:00:28;9.37;;;3.83;;
2972;SDS011;1496;51.404;7.232;2023-03-02T15:02:54;14.70;;;4.40;;
2972;SDS011;1496;51.404;7.232;2023-03-02T15:05:20;6.77;;;3.80;;
2972;SDS011;1496;51.404;7.232;2023-03-02T15:07:46;9.10;;;4.70;;
2972;SDS011;1496;51.404;7.232;2023-03-02T15:10:17;6.50;;;3.90;;
2972;SDS011;1496;51.404;7.232;2023-03-02T15:12:45;4.97;;;3.90;;
2972;SDS011;1496;51.404;7.232;2023-03-02T15:15:10;8.07;;;4.10;;
2972;SDS011;1496;51.404;7.232;2023-03-02T15:17:36;5.80;;;3.97;;
2972;SDS011;1496;51.404;7.232;2023-03-02T15:20:02;5.97;;;3.90;;
2972;SDS011;1496;51.404;7.232;2023-03-02T15:22:31;7.33;;;4.83;;
2972;SDS011;1496;51.404;7.232;2023-03-02T15:24:57;9.67;;;5.03;;
2972;SDS011;1496;51.404;7.232;2023-03-02T15:27:23;10.23;;;4.20;;
2972;SDS011;1496;51.404;7.232;2023-03-02T15:29:49;7.90;;;4.80;;
2972;SDS011;1496;51.404;7.232;2023-03-02T15:32:15;9.57;;;3.97;;
2972;SDS011;1496;51.404;7.232;2023-03-02T15:34:41;6.30;;;4.27;;
2972;SDS011;1496;51.404;7.232;2023-03-02T15:37:08;6.37;;;4.17;;
2972;SDS011;1496;51.404;7.232;2023-03-02T15:39:35;5.73;;;3.73;;
2972;SDS011;1496;51.404;7.232;2023-03-02T15:42:01;6.77;;;5.23;;
2972;SDS011;1496;51.404;7.232;2023-03-02T15:44:27;6.33;;;4.63;;
2972;SDS011;1496;51.404;7.232;2023-03-02T15:46:54;8.40;;;4.63;;
2972;SDS011;1496;51.404;7.232;2023-03-02T15:49:21;6.97;;;4.77;;
2972;SDS011;1496;51.404;7.232;2023-03-02T15:51:49;4.23;;;3.70;;
2972;SDS011;1496;51.404;7.232;2023-03-02T15:54:16;6.93;;;5.00;;
2972;SDS011;1496;51.404;7.232;2023-03-02T15:56:42;9.93;;;4.30;;
2972;SDS011;1496;51.404;7.232;2023-03-02T15:59:09;6.17;;;4.43;;
2972;SDS011;1496;51.404;7.232;2023-03-02T16:01:35;6.30;;;4.33;;
2972;SDS011;1496;51.404;7.232;2023-03-02T16:04:01;5.80;;;4.47;;
2972;SDS011;1496;51.404;7.232;2023-03-02T16:06:26;9.47;;;5.43;;
2972;SDS011;1496;51.404;7.232;2023-03-02T16:08:53;7.00;;;4.83;;
2972;SDS011;1496;51.404;7.232;2023-03-02T16:11:19;13.10;;;5.77;;